Aérodrome :







RETROUVEZ-NOUS SUR...

 
LOGIN :

S'inscrire | Disclaimer

   EN    FR    IT 

 









Légende :    VFR   VFR Marginal   IFR   IFR Intensif   IFR Très Intensif
Visi : 
Plafond : 
>= 8 km
>= 3000ft
5 à 8 km
1000 à 3000 ft
1500m à 5 km
500 à 1000 ft
800 à 1500m
200 à 500 ft
< 800m
< 200 ft
Symboles :   Orages  Brouillard  Fortes neiges  Fortes précipitations  Vent > 20 kt






- Altitude de l'aérodrome : 35 ft
- Code IATA : YGR


CYGR - ëles-de-la-Madeleine

DERNIER METAR :
  • 141300Z 32010G17KT 20SM BKN050 BKN270 M00/M11 A3039 RMK SC6CI1 CI TR SLP292

METARs EXPIRÉS :
  • 141200Z 32016KT 20SM BKN045 BKN270 M01/M10 A3036 RMK SC6CI1 CI TR PRESRR SLP281
  • 141121Z 31014G20KT 20SM BKN045 BKN270 M01/M09 A3032 RMK CU7CI1 CI TR SLP269

TAF TAF CYGR
Valide du 14 à 12h jusqu'au 15 à 00h UTC


141138Z 1412/1424 33010G20KT P6SM BKN040
TEMPO 1412/1424 4SM -SHSN
BECMG 1415/1417 22012KT RMK NXT FCST BY 141400Z



MET'MAP, la Météo Aéronautique d'un coup d'oeil ! - Copyright ORBIFLY Décembre 2007 - Disclaimer

ORBIFLY MET'MAP TEAM :

Programmation & Développement : Alexandra Zaïnal
Conception & Développement : Baudouin d'Aumeries
Co-Programmation & Développement : Marc-Olivier Méhu
Soutien technique & logistique : Manuel Goepfert

Contact : metmap@orbifly.com




SOURCES & CREDITS :

   NOAA